Time;durP1;ratioP1;P1;durP2;ratioP2;P2;SDS_P1;SDS_P2;PMS_P1;PMS_P2;Temp;Humidity;BMP_temperature;BMP_pressure;BME280_temperature;BME280_humidity;BME280_pressure;Samples;Min_cycle;Max_cycle;Signal;HPM_P1;HPM_P2
2021/12/26 00:00:22;;;;;;;12.57;9.23;;;;;;;;;;5033140;28;20407;-63
2021/12/26 00:02:48;;;;;;;15.43;10.03;;;;;;;;;;5033021;28;20458;-62
2021/12/26 00:05:15;;;;;;;14.53;10.10;;;;;;;;;;5032936;28;20415;-61
2021/12/26 00:07:41;;;;;;;14.63;9.07;;;;;;;;;;5032966;28;20535;-62
2021/12/26 00:10:08;;;;;;;13.33;9.03;;;;;;;;;;5032088;28;20402;-62
2021/12/26 00:12:34;;;;;;;11.73;7.67;;;;;;;;;;5032818;28;20458;-62
2021/12/26 00:15:01;;;;;;;12.20;7.63;;;;;;;;;;5032938;28;20399;-62
2021/12/26 00:17:27;;;;;;;11.20;8.03;;;;;;;;;;5032831;28;20498;-63
2021/12/26 00:19:53;;;;;;;12.73;8.37;;;;;;;;;;5032857;28;20395;-62
2021/12/26 00:22:19;;;;;;;13.63;8.80;;;;;;;;;;5033215;28;20418;-63
2021/12/26 00:24:46;;;;;;;11.87;8.50;;;;;;;;;;5032778;28;20413;-62
2021/12/26 00:27:12;;;;;;;10.10;7.83;;;;;;;;;;5033056;28;20399;-62
2021/12/26 00:29:38;;;;;;;12.70;7.97;;;;;;;;;;5032851;28;20437;-62
2021/12/26 00:32:06;;;;;;;13.03;8.83;;;;;;;;;;5032614;28;20427;-62
2021/12/26 00:34:32;;;;;;;13.70;9.73;;;;;;;;;;5036823;28;20425;-62
2021/12/26 00:36:58;;;;;;;10.47;8.17;;;;;;;;;;5036890;28;20452;-62
2021/12/26 00:39:24;;;;;;;14.20;9.20;;;;;;;;;;5037119;28;20394;-62
2021/12/26 00:41:52;;;;;;;15.30;10.10;;;;;;;;;;5036941;28;20846;-64
2021/12/26 00:44:18;;;;;;;12.40;9.63;;;;;;;;;;5037075;28;20811;-62
2021/12/26 00:46:44;;;;;;;12.43;9.37;;;;;;;;;;5036682;28;20468;-63
2021/12/26 00:49:11;;;;;;;13.03;10.13;;;;;;;;;;5036529;28;20460;-63
2021/12/26 00:51:37;;;;;;;12.77;9.10;;;;;;;;;;5036547;28;20478;-62
2021/12/26 00:54:03;;;;;;;11.23;8.93;;;;;;;;;;5036808;28;20426;-63
2021/12/26 00:56:29;;;;;;;10.70;8.03;;;;;;;;;;5036962;28;20451;-63
2021/12/26 00:58:55;;;;;;;11.67;8.33;;;;;;;;;;5036413;28;20903;-62
2021/12/26 01:01:21;;;;;;;13.87;9.77;;;;;;;;;;5036679;28;20411;-63
2021/12/26 01:03:48;;;;;;;15.80;10.93;;;;;;;;;;5036209;28;20426;-63
2021/12/26 01:06:14;;;;;;;13.63;10.10;;;;;;;;;;5036243;28;20883;-62
2021/12/26 01:08:42;;;;;;;15.87;10.53;;;;;;;;;;5036083;28;21060;-64
2021/12/26 01:11:16;;;;;;;11.53;9.17;;;;;;;;;;5036437;28;20868;-63
2021/12/26 01:13:44;;;;;;;13.97;9.73;;;;;;;;;;5036364;28;20433;-63
2021/12/26 01:16:11;;;;;;;15.97;10.33;;;;;;;;;;5036398;28;20485;-63
2021/12/26 01:18:39;;;;;;;13.40;10.10;;;;;;;;;;5036088;28;20476;-63
2021/12/26 01:21:21;;;;;;;15.27;10.97;;;;;;;;;;5036341;28;20414;-64
2021/12/26 01:23:52;;;;;;;15.43;10.40;;;;;;;;;;5035955;28;20422;-64
2021/12/26 01:26:18;;;;;;;13.10;9.50;;;;;;;;;;5036041;28;20395;-64
2021/12/26 01:28:44;;;;;;;14.83;10.17;;;;;;;;;;5035579;28;20462;-64
2021/12/26 01:31:11;;;;;;;13.73;10.87;;;;;;;;;;5035973;28;20556;-63
2021/12/26 01:33:37;;;;;;;15.97;12.17;;;;;;;;;;5035513;28;20415;-64
2021/12/26 01:36:04;;;;;;;14.10;10.53;;;;;;;;;;5035635;28;20403;-63
2021/12/26 01:38:30;;;;;;;13.30;10.07;;;;;;;;;;5035470;28;20472;-65
2021/12/26 01:40:57;;;;;;;14.47;11.10;;;;;;;;;;5035469;28;20498;-64
2021/12/26 01:43:26;;;;;;;13.47;10.40;;;;;;;;;;5035552;28;20480;-64
2021/12/26 01:45:53;;;;;;;14.07;11.30;;;;;;;;;;5034880;28;20402;-63
2021/12/26 01:48:19;;;;;;;13.73;9.73;;;;;;;;;;5035453;28;20469;-64
2021/12/26 01:50:46;;;;;;;14.60;10.97;;;;;;;;;;5035733;28;20411;-63
2021/12/26 01:53:12;;;;;;;12.50;9.30;;;;;;;;;;5035308;28;20425;-63
2021/12/26 01:55:42;;;;;;;14.43;10.23;;;;;;;;;;5035769;28;20835;-63
2021/12/26 01:58:09;;;;;;;19.83;12.80;;;;;;;;;;5035422;28;20493;-63
2021/12/26 02:00:36;;;;;;;17.90;11.63;;;;;;;;;;5035437;28;20407;-63
2021/12/26 02:03:02;;;;;;;16.83;12.40;;;;;;;;;;5035272;28;20420;-63
2021/12/26 02:05:28;;;;;;;16.40;11.70;;;;;;;;;;5035596;28;20411;-63
2021/12/26 02:07:54;;;;;;;17.87;12.03;;;;;;;;;;5035110;28;20469;-63
2021/12/26 02:10:20;;;;;;;16.07;11.07;;;;;;;;;;5034985;28;20396;-63
2021/12/26 02:12:47;;;;;;;13.67;10.73;;;;;;;;;;5034967;28;20415;-63
2021/12/26 02:15:13;;;;;;;13.20;9.83;;;;;;;;;;5034993;28;20395;-63
2021/12/26 02:17:39;;;;;;;16.20;11.40;;;;;;;;;;5035121;28;20460;-63
2021/12/26 02:20:14;;;;;;;16.00;11.40;;;;;;;;;;5034948;28;20403;-63
2021/12/26 02:22:44;;;;;;;15.27;10.97;;;;;;;;;;5035021;28;20422;-63
2021/12/26 02:27:42;;;;;;;14.60;9.90;;;;;;;;;;5034537;28;20392;-65
2021/12/26 02:30:10;;;;;;;14.83;10.63;;;;;;;;;;5035077;28;20382;-63
2021/12/26 02:32:36;;;;;;;14.70;10.53;;;;;;;;;;5034661;28;20415;-63
2021/12/26 02:35:02;;;;;;;15.60;11.50;;;;;;;;;;5034683;28;20407;-64
2021/12/26 02:37:29;;;;;;;15.50;11.70;;;;;;;;;;5034603;28;20391;-63
2021/12/26 02:39:55;;;;;;;13.70;10.60;;;;;;;;;;5034535;28;20418;-63
2021/12/26 02:42:22;;;;;;;13.97;10.63;;;;;;;;;;5034515;28;20429;-63
2021/12/26 02:44:49;;;;;;;16.27;10.57;;;;;;;;;;5034675;28;20415;-63
2021/12/26 02:47:29;;;;;;;13.70;10.47;;;;;;;;;;5034345;28;20399;-63
2021/12/26 02:49:58;;;;;;;16.27;11.00;;;;;;;;;;5034500;28;20395;-63
2021/12/26 02:52:24;;;;;;;19.73;11.67;;;;;;;;;;5030363;28;20508;-63
2021/12/26 02:54:50;;;;;;;15.47;11.00;;;;;;;;;;5034171;28;20407;-63
2021/12/26 02:57:16;;;;;;;17.60;12.17;;;;;;;;;;5034244;28;20391;-64
2021/12/26 02:59:42;;;;;;;16.70;12.23;;;;;;;;;;5034296;28;20764;-63
2021/12/26 03:02:08;;;;;;;18.07;12.40;;;;;;;;;;5033987;28;20875;-63
2021/12/26 03:04:35;;;;;;;16.03;11.50;;;;;;;;;;5034055;28;20892;-63
2021/12/26 03:07:04;;;;;;;16.53;11.10;;;;;;;;;;5034258;28;20403;-63
2021/12/26 03:09:33;;;;;;;15.57;11.10;;;;;;;;;;5033965;28;20955;-63
2021/12/26 03:12:00;;;;;;;16.63;11.27;;;;;;;;;;5034136;28;20430;-63
2021/12/26 03:14:26;;;;;;;16.57;12.47;;;;;;;;;;5033755;28;20409;-63
2021/12/26 03:16:52;;;;;;;16.70;12.00;;;;;;;;;;5033746;28;20395;-63
2021/12/26 03:19:18;;;;;;;15.50;11.40;;;;;;;;;;5033780;28;20414;-63
2021/12/26 03:21:44;;;;;;;15.30;11.97;;;;;;;;;;5033641;28;20403;-63
2021/12/26 03:24:10;;;;;;;15.70;11.70;;;;;;;;;;5034164;28;20442;-63
2021/12/26 03:26:36;;;;;;;14.13;11.67;;;;;;;;;;5033870;28;20414;-63
2021/12/26 03:29:02;;;;;;;16.63;11.90;;;;;;;;;;5033303;28;20455;-65
2021/12/26 03:31:29;;;;;;;16.70;11.60;;;;;;;;;;5033415;28;20398;-65
2021/12/26 03:33:55;;;;;;;16.83;11.87;;;;;;;;;;5033664;28;20415;-65
2021/12/26 03:36:21;;;;;;;17.70;11.30;;;;;;;;;;5033559;28;20437;-63
2021/12/26 03:38:47;;;;;;;14.23;10.33;;;;;;;;;;5033405;28;20399;-63
2021/12/26 03:41:13;;;;;;;16.00;11.23;;;;;;;;;;5033376;28;20815;-63
2021/12/26 03:43:39;;;;;;;15.10;11.30;;;;;;;;;;5033515;28;20430;-64
2021/12/26 03:46:05;;;;;;;14.90;11.60;;;;;;;;;;5033513;28;20437;-63
2021/12/26 03:48:31;;;;;;;19.33;11.40;;;;;;;;;;5033136;28;20450;-64
2021/12/26 03:50:58;;;;;;;14.00;10.37;;;;;;;;;;5033592;28;20399;-65
2021/12/26 03:53:25;;;;;;;18.47;12.40;;;;;;;;;;5033547;28;20430;-63
2021/12/26 03:55:51;;;;;;;17.10;12.50;;;;;;;;;;5033277;28;20395;-63
2021/12/26 03:58:17;;;;;;;15.50;11.23;;;;;;;;;;5033493;28;20967;-63
2021/12/26 04:00:44;;;;;;;16.87;10.73;;;;;;;;;;5033150;28;20406;-63
2021/12/26 04:03:10;;;;;;;15.20;10.77;;;;;;;;;;5033086;28;20518;-61
2021/12/26 04:05:36;;;;;;;16.43;11.10;;;;;;;;;;5033295;28;20864;-63
2021/12/26 04:08:03;;;;;;;16.70;12.10;;;;;;;;;;5032750;28;20533;-62
2021/12/26 04:10:29;;;;;;;17.37;12.23;;;;;;;;;;5033143;28;20402;-63
2021/12/26 04:12:55;;;;;;;15.93;11.53;;;;;;;;;;5032928;28;20510;-64
2021/12/26 04:15:22;;;;;;;17.30;11.93;;;;;;;;;;5032857;28;20395;-63
2021/12/26 04:17:50;;;;;;;17.27;11.80;;;;;;;;;;5033012;28;20773;-63
2021/12/26 04:20:17;;;;;;;16.70;12.63;;;;;;;;;;5032896;28;20406;-62
2021/12/26 04:22:43;;;;;;;18.40;12.70;;;;;;;;;;5026646;28;20538;-63
2021/12/26 04:25:09;;;;;;;17.73;11.17;;;;;;;;;;5019815;28;20422;-64
2021/12/26 04:27:36;;;;;;;14.77;11.27;;;;;;;;;;5013080;28;20773;-65
2021/12/26 04:30:04;;;;;;;15.73;10.27;;;;;;;;;;5024238;28;20922;-62
2021/12/26 04:32:30;;;;;;;17.67;11.97;;;;;;;;;;5013028;28;20422;-63
2021/12/26 04:34:56;;;;;;;17.97;12.33;;;;;;;;;;5013082;28;20400;-63
2021/12/26 04:37:22;;;;;;;18.27;11.20;;;;;;;;;;5013029;28;20490;-64
2021/12/26 04:39:48;;;;;;;17.13;11.90;;;;;;;;;;5013241;28;20428;-63
2021/12/26 04:42:15;;;;;;;21.80;12.60;;;;;;;;;;5012885;28;20426;-63
2021/12/26 04:44:41;;;;;;;19.30;11.93;;;;;;;;;;5028174;28;20400;-63
2021/12/26 04:47:07;;;;;;;20.40;11.07;;;;;;;;;;5013161;28;20503;-63
2021/12/26 04:49:34;;;;;;;16.60;11.20;;;;;;;;;;5012948;28;20447;-63
2021/12/26 04:52:00;;;;;;;19.37;13.40;;;;;;;;;;5012987;28;20453;-63
2021/12/26 04:54:26;;;;;;;21.60;11.50;;;;;;;;;;5013074;28;20449;-63
2021/12/26 04:56:52;;;;;;;18.80;12.13;;;;;;;;;;5012834;28;20877;-63
2021/12/26 04:59:18;;;;;;;14.90;11.10;;;;;;;;;;5012438;28;20419;-63
2021/12/26 05:01:44;;;;;;;16.70;10.93;;;;;;;;;;5018945;28;20415;-63
2021/12/26 05:04:11;;;;;;;16.53;11.60;;;;;;;;;;5032353;28;20414;-65
2021/12/26 05:06:37;;;;;;;16.90;11.80;;;;;;;;;;5023684;28;20477;-63
2021/12/26 05:09:03;;;;;;;16.93;12.30;;;;;;;;;;5017525;28;20506;-65
2021/12/26 05:11:30;;;;;;;17.70;11.47;;;;;;;;;;5012910;28;20412;-63
2021/12/26 05:13:56;;;;;;;19.40;12.13;;;;;;;;;;5012687;28;20399;-63
2021/12/26 05:16:22;;;;;;;19.93;12.33;;;;;;;;;;5012773;28;20798;-63
2021/12/26 05:18:48;;;;;;;20.53;12.67;;;;;;;;;;5013002;28;20408;-63
2021/12/26 05:21:14;;;;;;;16.53;10.70;;;;;;;;;;5015337;28;20435;-63
2021/12/26 05:23:40;;;;;;;15.37;10.80;;;;;;;;;;5016263;28;20423;-63
2021/12/26 05:26:06;;;;;;;14.30;10.43;;;;;;;;;;5016229;28;20431;-63
2021/12/26 05:28:34;;;;;;;15.73;10.70;;;;;;;;;;5016077;28;20463;-63
2021/12/26 05:31:00;;;;;;;15.50;11.37;;;;;;;;;;5015991;28;20412;-63
2021/12/26 05:33:26;;;;;;;13.47;10.20;;;;;;;;;;5015833;28;20463;-63
2021/12/26 05:35:52;;;;;;;15.07;10.27;;;;;;;;;;5015891;28;20400;-63
2021/12/26 05:38:18;;;;;;;14.37;10.13;;;;;;;;;;5015893;28;20404;-63
2021/12/26 05:40:44;;;;;;;15.90;11.07;;;;;;;;;;5015920;28;20407;-63
2021/12/26 05:43:10;;;;;;;13.33;10.40;;;;;;;;;;5015732;28;20430;-63
2021/12/26 05:45:38;;;;;;;15.37;9.97;;;;;;;;;;5015717;28;20403;-62
2021/12/26 05:48:04;;;;;;;15.80;11.07;;;;;;;;;;5015652;28;20490;-63
2021/12/26 05:50:30;;;;;;;12.80;9.20;;;;;;;;;;5015763;28;20770;-63
2021/12/26 05:52:56;;;;;;;13.17;9.37;;;;;;;;;;5016028;28;20419;-64
2021/12/26 05:55:22;;;;;;;19.43;11.40;;;;;;;;;;5015844;28;20430;-63
2021/12/26 05:57:49;;;;;;;13.23;9.37;;;;;;;;;;5015852;28;20435;-65
2021/12/26 06:00:16;;;;;;;15.00;10.40;;;;;;;;;;5015610;28;20415;-63
2021/12/26 06:02:42;;;;;;;12.90;10.30;;;;;;;;;;5015668;28;20514;-63
2021/12/26 06:05:08;;;;;;;15.83;10.37;;;;;;;;;;5015464;28;20419;-65
2021/12/26 06:07:34;;;;;;;12.97;9.07;;;;;;;;;;5015739;28;20478;-63
2021/12/26 06:10:00;;;;;;;14.63;9.80;;;;;;;;;;5015577;28;20435;-63
2021/12/26 06:12:26;;;;;;;13.00;9.53;;;;;;;;;;5015253;28;20459;-63
2021/12/26 06:14:53;;;;;;;17.50;10.73;;;;;;;;;;5015533;28;20407;-65
2021/12/26 06:17:19;;;;;;;12.57;9.07;;;;;;;;;;5015226;28;20415;-63
2021/12/26 06:19:45;;;;;;;13.37;9.70;;;;;;;;;;5015263;28;20411;-63
2021/12/26 06:22:11;;;;;;;11.83;8.53;;;;;;;;;;5015313;28;20481;-63
2021/12/26 06:24:37;;;;;;;11.30;8.80;;;;;;;;;;5015197;28;20934;-63
2021/12/26 06:27:03;;;;;;;11.50;8.37;;;;;;;;;;5015100;28;20502;-63
2021/12/26 06:29:29;;;;;;;12.47;8.67;;;;;;;;;;5014838;28;20960;-63
2021/12/26 06:31:55;;;;;;;11.63;8.17;;;;;;;;;;5014767;28;20419;-63
2021/12/26 06:34:21;;;;;;;15.37;10.07;;;;;;;;;;5015036;28;20454;-63
2021/12/26 06:36:47;;;;;;;11.03;8.53;;;;;;;;;;5014868;28;20400;-64
2021/12/26 06:39:13;;;;;;;14.17;9.00;;;;;;;;;;5014754;28;20498;-65
2021/12/26 06:41:39;;;;;;;11.57;9.27;;;;;;;;;;5015000;28;20419;-63
2021/12/26 06:44:07;;;;;;;11.00;8.90;;;;;;;;;;5014698;28;20470;-63
2021/12/26 06:46:34;;;;;;;11.07;8.43;;;;;;;;;;5014713;28;20435;-63
2021/12/26 06:49:01;;;;;;;13.43;9.77;;;;;;;;;;5014409;28;20458;-65
2021/12/26 06:51:27;;;;;;;13.27;8.50;;;;;;;;;;5014473;28;20403;-65
2021/12/26 06:53:53;;;;;;;13.57;8.67;;;;;;;;;;5014823;28;20400;-63
2021/12/26 06:56:19;;;;;;;13.20;8.50;;;;;;;;;;5015147;28;20408;-63
2021/12/26 06:58:45;;;;;;;12.43;9.50;;;;;;;;;;5014836;28;20415;-64
2021/12/26 07:01:11;;;;;;;12.57;8.97;;;;;;;;;;5014502;28;20407;-63
2021/12/26 07:03:37;;;;;;;15.47;9.53;;;;;;;;;;5014466;28;20427;-63
2021/12/26 07:06:03;;;;;;;12.87;9.30;;;;;;;;;;5014484;28;20411;-65
2021/12/26 07:08:29;;;;;;;12.73;9.73;;;;;;;;;;5014666;28;20451;-63
2021/12/26 07:10:55;;;;;;;11.80;8.47;;;;;;;;;;5014688;28;20461;-64
2021/12/26 07:13:22;;;;;;;14.37;10.40;;;;;;;;;;5014397;28;20928;-63
2021/12/26 07:15:48;;;;;;;11.70;8.83;;;;;;;;;;5014312;28;20419;-63
2021/12/26 07:18:14;;;;;;;11.97;8.13;;;;;;;;;;5014549;28;20768;-63
2021/12/26 07:20:40;;;;;;;12.83;9.57;;;;;;;;;;5014445;28;20403;-65
2021/12/26 07:23:06;;;;;;;13.60;9.37;;;;;;;;;;5014116;28;20427;-63
2021/12/26 07:25:33;;;;;;;12.00;8.80;;;;;;;;;;5014464;28;20434;-63
2021/12/26 07:27:59;;;;;;;12.63;8.50;;;;;;;;;;5013920;28;20987;-63
2021/12/26 07:30:25;;;;;;;11.73;9.43;;;;;;;;;;5014476;28;20792;-65
2021/12/26 07:32:51;;;;;;;11.33;8.53;;;;;;;;;;5014018;28;20775;-65
2021/12/26 07:35:17;;;;;;;9.97;7.90;;;;;;;;;;5014054;28;20490;-63
2021/12/26 07:37:45;;;;;;;12.50;8.67;;;;;;;;;;5013929;28;20400;-63
2021/12/26 07:40:11;;;;;;;12.00;9.47;;;;;;;;;;5014156;28;20742;-63
2021/12/26 07:42:37;;;;;;;11.83;9.00;;;;;;;;;;5013376;28;21005;-63
2021/12/26 07:45:03;;;;;;;12.73;9.53;;;;;;;;;;5013915;28;20889;-63
2021/12/26 07:47:29;;;;;;;11.67;8.37;;;;;;;;;;5013952;28;20403;-63
2021/12/26 07:49:56;;;;;;;10.43;7.13;;;;;;;;;;5013785;28;20419;-63
2021/12/26 07:52:27;;;;;;;10.70;7.47;;;;;;;;;;5013897;28;20765;-63
2021/12/26 07:54:53;;;;;;;12.90;9.00;;;;;;;;;;5014089;28;20761;-62
2021/12/26 07:57:19;;;;;;;11.43;7.77;;;;;;;;;;5013995;28;20418;-63
2021/12/26 07:59:45;;;;;;;9.63;7.20;;;;;;;;;;5013984;28;20407;-63
2021/12/26 08:02:16;;;;;;;10.00;7.87;;;;;;;;;;5013571;28;20477;-63
2021/12/26 08:04:44;;;;;;;11.27;8.90;;;;;;;;;;5013640;28;20400;-63
2021/12/26 08:07:10;;;;;;;11.37;8.10;;;;;;;;;;5013513;28;20409;-63
2021/12/26 08:09:36;;;;;;;11.30;8.10;;;;;;;;;;5013549;28;20941;-63
2021/12/26 08:12:02;;;;;;;11.27;7.80;;;;;;;;;;5013749;28;20453;-63
2021/12/26 08:14:28;;;;;;;10.50;7.27;;;;;;;;;;5013800;28;20482;-63
2021/12/26 08:16:54;;;;;;;11.73;8.13;;;;;;;;;;5013477;28;20403;-65
2021/12/26 08:19:20;;;;;;;12.47;8.70;;;;;;;;;;5013410;28;20412;-63
2021/12/26 08:21:51;;;;;;;10.27;7.67;;;;;;;;;;5013610;28;20458;-63
2021/12/26 08:24:17;;;;;;;9.13;7.20;;;;;;;;;;5013452;28;20384;-63
2021/12/26 08:26:43;;;;;;;9.30;6.53;;;;;;;;;;5013468;28;20416;-63
2021/12/26 08:29:09;;;;;;;11.30;8.00;;;;;;;;;;5013395;28;20505;-63
2021/12/26 08:31:35;;;;;;;12.03;8.10;;;;;;;;;;5013402;28;20410;-62
2021/12/26 08:34:04;;;;;;;10.43;8.03;;;;;;;;;;5013621;28;20410;-63
2021/12/26 08:36:30;;;;;;;12.47;8.40;;;;;;;;;;5013325;28;20404;-64
2021/12/26 08:38:56;;;;;;;16.90;8.10;;;;;;;;;;5013198;28;20403;-65
2021/12/26 08:41:23;;;;;;;9.20;6.87;;;;;;;;;;5013379;28;20430;-63
2021/12/26 08:43:49;;;;;;;17.17;6.97;;;;;;;;;;5013360;28;20841;-62
2021/12/26 08:46:15;;;;;;;9.97;7.67;;;;;;;;;;5013150;28;20412;-63
2021/12/26 08:48:41;;;;;;;11.03;7.63;;;;;;;;;;5013243;28;20450;-63
2021/12/26 08:51:07;;;;;;;11.00;7.90;;;;;;;;;;5013078;28;20403;-62
2021/12/26 08:53:33;;;;;;;9.60;7.97;;;;;;;;;;5013214;28;20462;-61
2021/12/26 08:55:59;;;;;;;12.27;8.27;;;;;;;;;;5017101;28;20477;-62
2021/12/26 08:58:26;;;;;;;10.43;7.33;;;;;;;;;;5016831;28;20414;-61
2021/12/26 09:00:52;;;;;;;10.17;7.10;;;;;;;;;;5016726;28;20778;-64
2021/12/26 09:03:18;;;;;;;11.30;8.17;;;;;;;;;;5016697;28;20927;-63
2021/12/26 09:05:45;;;;;;;12.70;7.80;;;;;;;;;;5016850;28;20411;-63
2021/12/26 09:08:11;;;;;;;11.17;7.90;;;;;;;;;;5016442;28;20455;-65
2021/12/26 09:10:38;;;;;;;9.30;7.30;;;;;;;;;;5016390;28;20409;-63
2021/12/26 09:13:04;;;;;;;10.13;7.00;;;;;;;;;;5016469;28;20423;-65
2021/12/26 09:15:31;;;;;;;9.20;8.07;;;;;;;;;;5016382;28;20487;-64
2021/12/26 09:17:57;;;;;;;8.50;6.43;;;;;;;;;;5016279;28;20427;-63
2021/12/26 09:20:24;;;;;;;11.40;8.17;;;;;;;;;;5031504;28;20403;-65
2021/12/26 09:22:50;;;;;;;10.03;7.90;;;;;;;;;;5016338;28;20427;-63
2021/12/26 09:25:16;;;;;;;9.67;7.80;;;;;;;;;;5031496;28;20407;-62
2021/12/26 09:27:42;;;;;;;10.50;8.40;;;;;;;;;;5016155;28;20550;-61
2021/12/26 09:30:09;;;;;;;10.30;8.07;;;;;;;;;;5016438;28;20414;-67
2021/12/26 09:32:35;;;;;;;10.70;8.07;;;;;;;;;;5046556;28;20433;-63
2021/12/26 09:35:02;;;;;;;9.10;7.20;;;;;;;;;;5035011;28;20425;-68
2021/12/26 09:37:29;;;;;;;9.20;7.33;;;;;;;;;;5035436;28;20498;-66
2021/12/26 09:39:55;;;;;;;11.03;8.37;;;;;;;;;;5035445;28;20426;-66
2021/12/26 09:42:24;;;;;;;12.00;9.07;;;;;;;;;;5035199;28;20462;-66
2021/12/26 09:44:50;;;;;;;10.30;8.17;;;;;;;;;;5034332;28;20419;-66
2021/12/26 09:47:17;;;;;;;9.30;7.40;;;;;;;;;;5035566;28;20416;-66
2021/12/26 09:49:43;;;;;;;10.50;7.90;;;;;;;;;;5035533;28;20450;-66
2021/12/26 09:52:09;;;;;;;9.97;8.20;;;;;;;;;;5037232;28;20439;-66
2021/12/26 09:54:36;;;;;;;10.47;7.90;;;;;;;;;;5035631;28;20403;-66
2021/12/26 09:57:02;;;;;;;9.57;8.30;;;;;;;;;;5035779;28;20407;-66
2021/12/26 09:59:30;;;;;;;15.83;9.07;;;;;;;;;;5035519;28;20772;-66
2021/12/26 10:01:57;;;;;;;12.13;8.17;;;;;;;;;;5035719;28;20423;-65
2021/12/26 10:04:25;;;;;;;9.57;7.87;;;;;;;;;;5035549;28;20398;-66
2021/12/26 10:07:01;;;;;;;11.80;8.77;;;;;;;;;;5035033;28;20411;-66
2021/12/26 10:09:28;;;;;;;11.20;8.70;;;;;;;;;;5035487;28;20961;-66
2021/12/26 10:11:55;;;;;;;12.00;9.57;;;;;;;;;;5035808;28;20783;-65
2021/12/26 10:14:25;;;;;;;9.40;7.90;;;;;;;;;;5035311;28;20391;-65
2021/12/26 10:16:53;;;;;;;11.17;8.20;;;;;;;;;;5035502;28;20495;-66
2021/12/26 10:19:20;;;;;;;11.20;7.90;;;;;;;;;;5035600;28;20403;-66
2021/12/26 10:21:47;;;;;;;10.93;8.37;;;;;;;;;;5035956;28;20438;-65
2021/12/26 10:24:24;;;;;;;9.67;7.50;;;;;;;;;;5035470;28;20437;-65
2021/12/26 10:26:57;;;;;;;10.37;7.47;;;;;;;;;;5036131;28;20821;-65
2021/12/26 10:29:38;;;;;;;9.07;7.23;;;;;;;;;;5034925;28;20480;-66
2021/12/26 10:32:07;;;;;;;9.83;8.00;;;;;;;;;;5035410;28;20889;-65
2021/12/26 10:34:36;;;;;;;11.13;9.03;;;;;;;;;;5035467;28;20403;-65
2021/12/26 10:37:05;;;;;;;10.40;8.00;;;;;;;;;;5036144;28;20485;-65
2021/12/26 10:39:36;;;;;;;9.40;7.90;;;;;;;;;;5036119;28;20403;-66
2021/12/26 10:42:04;;;;;;;11.33;8.53;;;;;;;;;;5035146;28;20430;-66
2021/12/26 10:44:40;;;;;;;12.97;9.27;;;;;;;;;;5034746;28;20471;-66
2021/12/26 10:47:08;;;;;;;11.00;8.27;;;;;;;;;;5034623;28;20483;-64
2021/12/26 10:49:34;;;;;;;9.90;8.37;;;;;;;;;;5034483;28;20458;-64
2021/12/26 10:52:00;;;;;;;8.53;7.30;;;;;;;;;;5034481;28;20457;-65
2021/12/26 10:54:31;;;;;;;12.47;9.80;;;;;;;;;;5034818;28;20759;-65
2021/12/26 10:57:04;;;;;;;12.47;9.10;;;;;;;;;;5034734;28;20744;-66
2021/12/26 10:59:30;;;;;;;9.90;7.43;;;;;;;;;;5034806;28;20468;-65
2021/12/26 11:01:56;;;;;;;8.57;7.60;;;;;;;;;;5036302;28;20430;-66
2021/12/26 11:04:25;;;;;;;9.20;7.70;;;;;;;;;;5034428;28;20414;-66
2021/12/26 11:07:01;;;;;;;10.40;7.90;;;;;;;;;;5034214;28;20406;-68
2021/12/26 11:09:28;;;;;;;11.70;8.33;;;;;;;;;;5034593;28;20450;-65
2021/12/26 11:11:58;;;;;;;11.10;7.53;;;;;;;;;;5034268;28;21039;-65
2021/12/26 11:14:24;;;;;;;10.63;8.17;;;;;;;;;;5034332;28;20413;-65
2021/12/26 11:16:50;;;;;;;9.30;6.83;;;;;;;;;;5033802;28;20415;-65
2021/12/26 11:19:16;;;;;;;10.23;8.13;;;;;;;;;;5033533;28;20513;-64
2021/12/26 11:21:43;;;;;;;10.07;7.10;;;;;;;;;;5032297;28;20501;-64
2021/12/26 11:24:09;;;;;;;10.30;7.70;;;;;;;;;;5033826;28;20407;-64
2021/12/26 11:26:35;;;;;;;10.50;8.27;;;;;;;;;;5032216;28;20835;-65
2021/12/26 11:29:01;;;;;;;12.33;9.00;;;;;;;;;;5033358;28;20470;-65
2021/12/26 11:31:29;;;;;;;10.27;8.80;;;;;;;;;;5033647;28;20461;-65
2021/12/26 11:33:59;;;;;;;11.00;8.30;;;;;;;;;;5033842;28;20406;-65
2021/12/26 11:36:26;;;;;;;11.57;8.70;;;;;;;;;;5033688;28;20407;-64
2021/12/26 11:38:53;;;;;;;8.80;7.87;;;;;;;;;;5033382;28;20418;-64
2021/12/26 11:41:22;;;;;;;9.83;8.77;;;;;;;;;;5033512;28;20490;-65
2021/12/26 11:44:00;;;;;;;11.20;8.60;;;;;;;;;;5033422;28;20419;-65
2021/12/26 11:46:29;;;;;;;10.57;7.93;;;;;;;;;;5033598;28;20763;-65
2021/12/26 11:49:14;;;;;;;11.87;9.37;;;;;;;;;;5033639;28;20766;-65
2021/12/26 11:52:06;;;;;;;11.67;8.97;;;;;;;;;;5033585;28;20828;-65
2021/12/26 11:54:35;;;;;;;9.73;7.53;;;;;;;;;;5033365;28;20395;-64
2021/12/26 11:57:10;;;;;;;9.97;7.20;;;;;;;;;;5033327;28;20407;-66
2021/12/26 11:59:54;;;;;;;9.07;7.90;;;;;;;;;;5033184;28;20437;-64
2021/12/26 12:02:40;;;;;;;12.77;7.40;;;;;;;;;;5032997;28;20437;-64
2021/12/26 12:05:20;;;;;;;11.23;8.37;;;;;;;;;;5033413;28;20485;-64
2021/12/26 12:08:00;;;;;;;10.10;7.80;;;;;;;;;;5033253;28;20426;-65
2021/12/26 12:10:32;;;;;;;10.77;7.57;;;;;;;;;;5033453;28;20760;-64
2021/12/26 12:12:58;;;;;;;9.63;8.17;;;;;;;;;;5033369;28;20501;-64
2021/12/26 12:15:44;;;;;;;9.07;6.50;;;;;;;;;;5033086;28;20398;-66
2021/12/26 12:18:34;;;;;;;10.43;7.67;;;;;;;;;;5022579;28;20414;-64
2021/12/26 12:21:08;;;;;;;8.60;7.30;;;;;;;;;;5025338;28;20422;-64
2021/12/26 12:23:34;;;;;;;10.80;7.10;;;;;;;;;;5032932;28;20781;-64
2021/12/26 12:26:00;;;;;;;9.47;7.00;;;;;;;;;;5033023;28;20403;-64
2021/12/26 12:28:27;;;;;;;11.40;7.90;;;;;;;;;;5033039;28;20512;-64
2021/12/26 12:30:54;;;;;;;7.97;6.30;;;;;;;;;;5037373;28;20457;-64
2021/12/26 12:33:28;;;;;;;7.13;6.20;;;;;;;;;;5036113;28;20450;-64
2021/12/26 12:35:54;;;;;;;7.47;6.53;;;;;;;;;;5037055;28;20460;-64
2021/12/26 12:38:37;;;;;;;8.03;6.50;;;;;;;;;;5036884;28;20493;-64
2021/12/26 12:41:04;;;;;;;10.20;6.83;;;;;;;;;;5036893;28;20819;-64
2021/12/26 12:43:30;;;;;;;8.57;6.80;;;;;;;;;;5036732;28;20500;-64
2021/12/26 12:46:04;;;;;;;9.90;7.30;;;;;;;;;;5037120;28;20410;-64
2021/12/26 12:48:32;;;;;;;9.53;6.67;;;;;;;;;;5036837;28;20450;-64
2021/12/26 12:51:00;;;;;;;8.33;6.77;;;;;;;;;;5036834;28;20919;-64
2021/12/26 12:53:39;;;;;;;8.93;7.67;;;;;;;;;;5036571;28;20488;-64
2021/12/26 12:56:05;;;;;;;9.20;8.20;;;;;;;;;;5037273;28;20426;-65
2021/12/26 12:58:32;;;;;;;10.67;9.00;;;;;;;;;;5036896;28;20405;-65
2021/12/26 13:01:02;;;;;;;10.10;8.17;;;;;;;;;;5036803;28;20410;-66
2021/12/26 13:03:29;;;;;;;9.50;7.90;;;;;;;;;;5036479;28;20513;-66
2021/12/26 13:05:55;;;;;;;10.83;9.00;;;;;;;;;;5036413;28;20414;-66
2021/12/26 13:08:22;;;;;;;9.00;7.77;;;;;;;;;;5036275;28;20488;-65
2021/12/26 13:10:56;;;;;;;10.40;7.57;;;;;;;;;;5036565;28;20402;-64
2021/12/26 13:13:23;;;;;;;10.33;8.80;;;;;;;;;;5036041;28;20491;-65
2021/12/26 13:15:55;;;;;;;12.77;9.33;;;;;;;;;;5036403;28;20429;-65
2021/12/26 13:18:23;;;;;;;14.33;8.47;;;;;;;;;;5036009;28;20506;-65
2021/12/26 13:20:53;;;;;;;9.57;8.23;;;;;;;;;;5036164;28;20405;-64
2021/12/26 13:23:20;;;;;;;11.60;8.43;;;;;;;;;;5036049;28;20422;-64
2021/12/26 13:25:48;;;;;;;11.20;8.60;;;;;;;;;;5036003;28;20394;-64
2021/12/26 13:28:17;;;;;;;10.17;7.77;;;;;;;;;;5036079;28;20987;-64
2021/12/26 13:30:44;;;;;;;10.00;8.30;;;;;;;;;;5036094;28;20448;-64
2021/12/26 13:33:20;;;;;;;9.03;7.53;;;;;;;;;;5036018;28;20785;-64
2021/12/26 13:35:46;;;;;;;9.20;8.27;;;;;;;;;;5035832;28;20402;-64
2021/12/26 13:38:12;;;;;;;7.70;6.77;;;;;;;;;;5034961;28;20398;-64
2021/12/26 13:40:49;;;;;;;7.53;6.67;;;;;;;;;;5034638;28;20405;-66
2021/12/26 13:43:24;;;;;;;11.93;8.33;;;;;;;;;;5035751;28;20446;-65
2021/12/26 13:45:52;;;;;;;8.77;7.23;;;;;;;;;;5036027;28;20394;-66
2021/12/26 13:48:26;;;;;;;9.60;7.27;;;;;;;;;;5035944;28;20458;-66
2021/12/26 13:50:52;;;;;;;9.47;8.30;;;;;;;;;;5035914;28;20398;-68
2021/12/26 13:53:18;;;;;;;12.10;8.77;;;;;;;;;;5035626;28;20419;-65
2021/12/26 13:55:47;;;;;;;11.07;8.30;;;;;;;;;;5035630;28;20768;-65
2021/12/26 13:58:14;;;;;;;10.53;8.00;;;;;;;;;;5035558;28;20398;-65
2021/12/26 14:00:56;;;;;;;10.70;7.93;;;;;;;;;;5035685;28;20455;-64
2021/12/26 14:03:23;;;;;;;9.07;8.17;;;;;;;;;;5035288;28;20878;-66
2021/12/26 14:05:50;;;;;;;9.27;7.23;;;;;;;;;;5035520;28;20426;-64
2021/12/26 14:08:17;;;;;;;10.43;8.00;;;;;;;;;;5035135;28;20450;-64
2021/12/26 14:10:43;;;;;;;11.50;8.90;;;;;;;;;;5035147;28;20425;-64
2021/12/26 14:13:11;;;;;;;10.17;8.57;;;;;;;;;;5035249;28;20498;-64
2021/12/26 14:15:45;;;;;;;9.57;7.60;;;;;;;;;;5035414;28;20398;-64
2021/12/26 14:18:18;;;;;;;9.63;7.90;;;;;;;;;;5035141;28;20439;-64
2021/12/26 14:20:44;;;;;;;10.70;8.20;;;;;;;;;;5035024;28;20399;-66
2021/12/26 14:23:14;;;;;;;9.43;7.83;;;;;;;;;;5035143;28;20764;-65
2021/12/26 14:25:40;;;;;;;8.40;7.40;;;;;;;;;;5035099;28;20778;-65
2021/12/26 14:28:06;;;;;;;10.50;8.10;;;;;;;;;;5033540;28;20560;-65
2021/12/26 14:30:37;;;;;;;9.20;7.47;;;;;;;;;;5035085;28;20470;-65
2021/12/26 14:33:03;;;;;;;8.17;6.87;;;;;;;;;;5034789;28;20411;-64